createdAt,value
2023-09-13T00:01:32.010Z,14.98
2023-09-13T00:03:59.576Z,14.92
2023-09-13T00:06:26.379Z,14.90
2023-09-13T00:08:53.026Z,15.05
2023-09-13T00:11:19.655Z,14.97
2023-09-13T00:13:46.302Z,14.64
2023-09-13T00:16:13.228Z,14.90
2023-09-13T00:18:40.101Z,14.89
2023-09-13T00:21:10.119Z,15.04
2023-09-13T00:23:36.792Z,14.87
2023-09-13T00:26:06.234Z,15.10
2023-09-13T00:28:33.323Z,14.91
2023-09-13T00:31:00.200Z,14.95
2023-09-13T00:33:27.062Z,15.00
2023-09-13T00:35:57.664Z,15.01
2023-09-13T00:38:24.338Z,15.05
2023-09-13T00:40:51.237Z,14.80
2023-09-13T00:43:18.055Z,14.79
2023-09-13T00:45:45.396Z,14.89
2023-09-13T00:48:15.201Z,15.00
2023-09-13T00:53:19.165Z,15.02
2023-09-13T00:55:47.990Z,14.92
2023-09-13T00:58:14.823Z,14.82
2023-09-13T01:00:41.619Z,14.61
2023-09-13T01:03:08.505Z,14.76
2023-09-13T01:05:36.703Z,14.64
2023-09-13T01:08:04.431Z,14.61
2023-09-13T01:10:31.262Z,14.73
2023-09-13T01:12:58.102Z,14.56
2023-09-13T01:15:28.823Z,14.66
2023-09-13T01:18:04.588Z,14.65
2023-09-13T01:20:31.497Z,14.57
2023-09-13T01:23:23.756Z,14.54
2023-09-13T01:26:04.950Z,14.55
2023-09-13T01:28:35.626Z,14.52
2023-09-13T01:31:06.804Z,14.41
2023-09-13T01:33:33.713Z,14.21
2023-09-13T01:36:01.033Z,14.41
2023-09-13T01:38:28.604Z,14.26
2023-09-13T01:41:03.297Z,14.42
2023-09-13T01:43:31.083Z,14.32
2023-09-13T01:45:58.613Z,14.33
2023-09-13T01:48:25.818Z,14.36
2023-09-13T01:50:54.267Z,14.20
2023-09-13T01:53:21.150Z,14.37
2023-09-13T01:55:48.029Z,14.19
2023-09-13T01:58:14.908Z,14.25
2023-09-13T02:00:42.243Z,14.18
2023-09-13T02:03:09.016Z,14.13
2023-09-13T02:05:35.724Z,14.00
2023-09-13T02:08:02.541Z,14.01
2023-09-13T02:10:29.251Z,13.94
2023-09-13T02:12:55.960Z,13.91
2023-09-13T02:15:22.793Z,13.98
2023-09-13T02:17:49.476Z,13.70
2023-09-13T02:20:16.236Z,14.05
2023-09-13T02:22:43.130Z,13.91
2023-09-13T02:25:10.005Z,14.23
2023-09-13T02:27:36.752Z,14.10
2023-09-13T02:30:09.878Z,13.99
2023-09-13T02:32:36.669Z,13.74
2023-09-13T02:35:03.907Z,13.76
2023-09-13T02:37:30.623Z,13.54
2023-09-13T02:39:59.429Z,13.82
2023-09-13T02:42:26.299Z,13.51
2023-09-13T02:44:53.034Z,13.71
2023-09-13T02:47:19.795Z,13.77
2023-09-13T02:49:46.594Z,13.86
2023-09-13T02:52:13.347Z,13.72
2023-09-13T02:54:40.252Z,13.69
2023-09-13T02:57:08.314Z,13.68
2023-09-13T02:59:35.040Z,13.57
2023-09-13T03:02:01.938Z,13.64
2023-09-13T03:04:29.517Z,13.51
2023-09-13T03:06:56.375Z,13.27
2023-09-13T03:09:23.193Z,13.33
2023-09-13T03:11:49.975Z,13.28
2023-09-13T03:14:16.844Z,13.02
2023-09-13T03:16:43.669Z,12.97
2023-09-13T03:19:11.937Z,13.16
2023-09-13T03:21:38.799Z,13.11
2023-09-13T03:24:06.650Z,13.07
2023-09-13T03:26:34.830Z,12.98
2023-09-13T03:29:01.632Z,13.12
2023-09-13T03:31:29.280Z,13.15
2023-09-13T03:33:57.332Z,13.07
2023-09-13T03:36:26.415Z,12.96
2023-09-13T03:38:53.201Z,13.00
2023-09-13T03:41:21.255Z,12.99
2023-09-13T03:43:48.495Z,13.14
2023-09-13T03:46:15.432Z,13.25
2023-09-13T03:48:42.256Z,13.30
2023-09-13T03:51:09.482Z,13.16
2023-09-13T03:53:37.025Z,13.55
2023-09-13T03:56:04.774Z,13.64
2023-09-13T03:58:31.690Z,13.88
2023-09-13T04:00:58.839Z,13.77
2023-09-13T04:03:25.872Z,14.06
2023-09-13T04:05:53.033Z,14.22
2023-09-13T04:08:19.992Z,14.30
2023-09-13T04:10:46.803Z,14.53
2023-09-13T04:13:13.689Z,14.39
2023-09-13T04:15:43.405Z,14.12
2023-09-13T04:18:10.187Z,14.55
2023-09-13T04:20:36.952Z,14.60
2023-09-13T04:23:03.811Z,15.27
2023-09-13T04:25:30.657Z,15.57
2023-09-13T04:27:57.383Z,15.24
2023-09-13T04:30:24.232Z,14.97
2023-09-13T04:32:51.008Z,14.93
2023-09-13T04:35:18.578Z,15.19
2023-09-13T04:37:45.342Z,15.22
2023-09-13T04:40:14.676Z,15.20
2023-09-13T04:42:55.665Z,15.58
2023-09-13T04:45:23.308Z,15.20
2023-09-13T04:47:50.395Z,15.07
2023-09-13T04:50:17.270Z,14.91
2023-09-13T04:52:44.205Z,14.90
2023-09-13T04:55:11.078Z,14.96
2023-09-13T04:57:37.961Z,15.14
2023-09-13T05:00:12.606Z,15.16
2023-09-13T05:02:39.805Z,15.19
2023-09-13T05:05:07.468Z,15.27
2023-09-13T05:07:34.256Z,15.30
2023-09-13T05:10:01.158Z,15.19
2023-09-13T05:12:27.906Z,15.24
2023-09-13T05:14:54.609Z,15.81
2023-09-13T05:17:21.344Z,16.29
2023-09-13T05:19:48.136Z,16.11
2023-09-13T05:22:15.211Z,16.56
2023-09-13T05:24:42.034Z,16.68
2023-09-13T05:27:08.750Z,16.64
2023-09-13T05:29:35.439Z,16.99
2023-09-13T05:32:02.397Z,16.62
2023-09-13T05:34:29.437Z,16.49
2023-09-13T05:36:56.888Z,16.44
2023-09-13T05:39:23.748Z,16.89
2023-09-13T05:41:51.223Z,17.02
2023-09-13T05:44:26.337Z,17.15
2023-09-13T05:46:56.218Z,17.38
2023-09-13T05:49:23.058Z,17.67
2023-09-13T05:51:50.686Z,17.60
2023-09-13T05:54:17.660Z,17.95
2023-09-13T05:56:45.208Z,17.92
2023-09-13T05:59:11.949Z,17.80
2023-09-13T06:01:38.828Z,17.50
2023-09-13T06:04:07.463Z,17.79
2023-09-13T06:06:35.353Z,17.88
2023-09-13T06:09:05.072Z,17.95
2023-09-13T06:11:32.718Z,18.52
2023-09-13T06:13:59.580Z,18.58
2023-09-13T06:16:26.536Z,18.77
2023-09-13T06:18:53.991Z,18.99
2023-09-13T06:21:20.746Z,19.10
2023-09-13T06:23:48.848Z,18.85
2023-09-13T06:26:15.855Z,19.01
2023-09-13T06:28:42.953Z,19.03
2023-09-13T06:31:23.063Z,19.08
2023-09-13T06:33:56.812Z,19.07
2023-09-13T06:36:24.339Z,18.84
2023-09-13T06:38:52.256Z,18.52
2023-09-13T06:41:19.104Z,18.55
2023-09-13T06:44:05.580Z,18.59
2023-09-13T06:46:37.624Z,18.53
2023-09-13T06:49:05.377Z,18.46
2023-09-13T06:54:05.886Z,19.02
2023-09-13T06:56:34.087Z,18.72
2023-09-13T06:59:06.320Z,18.95
2023-09-13T07:04:08.587Z,18.58
2023-09-13T07:06:36.356Z,18.68
2023-09-13T07:09:04.774Z,19.11
2023-09-13T07:11:31.583Z,19.03
2023-09-13T07:13:59.673Z,19.14
2023-09-13T07:16:27.440Z,19.22
2023-09-13T07:18:56.163Z,19.23
2023-09-13T07:21:23.032Z,19.32
2023-09-13T07:23:49.812Z,19.31
2023-09-13T07:26:17.143Z,19.34
2023-09-13T07:28:46.610Z,19.08
2023-09-13T07:31:14.061Z,19.67
2023-09-13T07:33:40.872Z,19.66
2023-09-13T07:36:07.694Z,19.35
2023-09-13T07:38:36.195Z,19.85
2023-09-13T07:41:03.048Z,20.01
2023-09-13T07:43:29.789Z,19.82
2023-09-13T07:45:56.720Z,19.78
2023-09-13T07:48:24.494Z,19.86
2023-09-13T07:50:51.274Z,19.92
2023-09-13T07:53:18.128Z,20.00
2023-09-13T07:55:44.813Z,20.11
2023-09-13T07:58:11.473Z,20.40
2023-09-13T08:00:38.468Z,20.36
2023-09-13T08:03:05.932Z,20.41
2023-09-13T08:05:32.824Z,20.54
2023-09-13T08:08:00.336Z,20.59
2023-09-13T08:10:27.359Z,20.35
2023-09-13T08:12:56.158Z,20.64
2023-09-13T08:15:30.818Z,20.74
2023-09-13T08:18:05.623Z,20.58
2023-09-13T08:20:32.645Z,20.58
2023-09-13T08:22:59.482Z,20.57
2023-09-13T08:25:26.553Z,20.52
2023-09-13T08:27:53.428Z,20.94
2023-09-13T08:30:23.039Z,20.93
2023-09-13T08:32:49.789Z,21.22
2023-09-13T08:35:16.974Z,21.32
2023-09-13T08:37:43.930Z,21.23
2023-09-13T08:40:12.364Z,21.31
2023-09-13T08:42:41.542Z,21.15
2023-09-13T08:45:08.498Z,21.17
2023-09-13T08:47:55.122Z,21.39
2023-09-13T08:50:27.535Z,21.28
2023-09-13T08:52:54.862Z,21.17
2023-09-13T08:55:22.128Z,21.41
2023-09-13T08:57:49.147Z,21.46
2023-09-13T09:00:17.142Z,21.37
2023-09-13T09:02:44.527Z,21.64
2023-09-13T09:05:12.832Z,21.58
2023-09-13T09:07:41.535Z,21.46
2023-09-13T09:10:12.747Z,21.91
2023-09-13T09:12:44.958Z,21.92
2023-09-13T09:15:13.073Z,21.75
2023-09-13T09:17:41.087Z,21.76
2023-09-13T09:20:08.801Z,21.95
2023-09-13T09:22:35.859Z,22.09
2023-09-13T09:25:03.917Z,22.26
2023-09-13T09:27:30.667Z,22.07
2023-09-13T09:30:01.960Z,22.27
2023-09-13T09:32:31.922Z,22.60
2023-09-13T09:35:01.968Z,22.61
2023-09-13T09:37:34.650Z,22.70
2023-09-13T09:40:02.286Z,22.81
2023-09-13T09:42:30.590Z,22.82
2023-09-13T09:44:57.717Z,22.42
2023-09-13T09:47:25.004Z,22.90
2023-09-13T09:49:52.250Z,23.18
2023-09-13T09:52:20.608Z,22.82
2023-09-13T09:54:48.950Z,22.99
2023-09-13T09:57:27.649Z,23.04
2023-09-13T09:59:54.437Z,23.14
2023-09-13T10:02:30.368Z,23.28
2023-09-13T10:05:01.076Z,23.19
2023-09-13T10:07:27.803Z,23.33
2023-09-13T10:09:56.664Z,23.36
2023-09-13T10:12:23.304Z,23.50
2023-09-13T10:14:50.016Z,23.22
2023-09-13T10:17:18.406Z,23.75
2023-09-13T10:19:48.240Z,23.59
2023-09-13T10:22:15.962Z,23.73
2023-09-13T10:24:50.422Z,23.77
2023-09-13T10:27:19.208Z,23.60
2023-09-13T10:29:48.991Z,23.79
2023-09-13T10:32:16.840Z,23.80
2023-09-13T10:35:05.157Z,23.95
2023-09-13T10:37:57.709Z,24.04
2023-09-13T10:40:26.274Z,24.00
2023-09-13T10:42:54.094Z,24.03
2023-09-13T10:45:23.897Z,24.18
2023-09-13T10:47:51.962Z,23.96
2023-09-13T10:50:23.151Z,24.34
2023-09-13T10:52:50.982Z,23.87
2023-09-13T10:55:18.082Z,24.05
2023-09-13T10:57:45.018Z,24.23
2023-09-13T11:00:13.389Z,24.24
2023-09-13T11:02:45.215Z,24.22
2023-09-13T11:05:13.020Z,24.29
2023-09-13T11:07:48.280Z,24.24
2023-09-13T11:10:19.546Z,24.48
2023-09-13T11:12:52.764Z,24.30
2023-09-13T11:15:27.080Z,24.41
2023-09-13T11:17:55.370Z,24.50
2023-09-13T11:20:26.136Z,24.53
2023-09-13T11:23:07.238Z,24.67
2023-09-13T11:25:58.418Z,24.64
2023-09-13T11:28:40.114Z,24.85
2023-09-13T11:31:11.144Z,24.05
2023-09-13T11:33:45.964Z,24.55
2023-09-13T11:36:13.107Z,24.67
2023-09-13T11:38:39.849Z,24.60
2023-09-13T11:41:06.832Z,24.56
2023-09-13T11:43:37.835Z,24.69
2023-09-13T11:46:05.778Z,24.93
2023-09-13T11:48:54.818Z,24.89
2023-09-13T11:51:25.684Z,25.12
2023-09-13T11:53:53.147Z,25.18
2023-09-13T11:56:51.256Z,25.09
2023-09-13T12:01:56.644Z,24.94
2023-09-13T12:06:59.806Z,24.88
2023-09-13T12:09:30.747Z,25.15
2023-09-13T12:12:02.009Z,25.03
2023-09-13T12:14:57.096Z,25.58
2023-09-13T12:17:20.606Z,25.27
2023-09-13T12:19:48.715Z,25.16
2023-09-13T12:22:17.493Z,25.22
2023-09-13T12:24:53.748Z,24.96
2023-09-13T12:27:20.894Z,25.03
2023-09-13T12:29:52.779Z,24.68
2023-09-13T12:32:19.495Z,24.75
2023-09-13T12:34:48.970Z,24.99
2023-09-13T12:37:16.288Z,24.93
2023-09-13T12:39:43.643Z,25.17
2023-09-13T12:42:10.624Z,25.10
2023-09-13T12:44:38.704Z,25.33
2023-09-13T12:47:06.570Z,25.35
2023-09-13T12:49:39.378Z,25.17
2023-09-13T12:52:06.507Z,25.05
2023-09-13T12:54:37.197Z,25.18
2023-09-13T12:57:04.414Z,25.19
2023-09-13T12:59:48.155Z,25.21
2023-09-13T13:02:21.156Z,25.28
2023-09-13T13:04:48.648Z,25.29
2023-09-13T13:07:24.529Z,25.42
2023-09-13T13:09:53.046Z,25.55
2023-09-13T13:12:19.863Z,25.73
2023-09-13T13:14:52.877Z,25.50
2023-09-13T13:17:26.001Z,25.78
2023-09-13T13:19:57.489Z,25.98
2023-09-13T13:22:25.905Z,25.69
2023-09-13T13:24:53.922Z,25.44
2023-09-13T13:27:21.273Z,25.50
2023-09-13T13:29:49.353Z,25.16
2023-09-13T13:32:16.648Z,25.49
2023-09-13T13:34:43.795Z,25.62
2023-09-13T13:37:14.341Z,25.62
2023-09-13T13:39:41.282Z,25.49
2023-09-13T13:42:08.057Z,25.61
2023-09-13T13:44:35.985Z,25.52
2023-09-13T13:47:09.063Z,25.49
2023-09-13T13:49:36.481Z,25.40
2023-09-13T13:52:03.476Z,25.49
2023-09-13T13:54:30.374Z,25.56
2023-09-13T13:56:57.080Z,25.53
2023-09-13T13:59:23.845Z,25.39
2023-09-13T14:01:50.654Z,25.67
2023-09-13T14:04:17.607Z,26.01
2023-09-13T14:06:47.585Z,26.08
2023-09-13T14:09:17.638Z,26.08
2023-09-13T14:11:44.394Z,26.21
2023-09-13T14:14:15.121Z,26.26
2023-09-13T14:16:45.105Z,26.11
2023-09-13T14:19:12.868Z,26.20
2023-09-13T14:21:46.396Z,26.27
2023-09-13T14:24:13.406Z,25.17
2023-09-13T14:26:40.269Z,25.43
2023-09-13T14:29:08.937Z,25.62
2023-09-13T14:31:38.388Z,25.68
2023-09-13T14:34:07.738Z,25.56
2023-09-13T14:36:34.892Z,25.47
2023-09-13T14:39:01.800Z,25.39
2023-09-13T14:41:30.188Z,25.44
2023-09-13T14:43:56.861Z,25.70
2023-09-13T14:46:23.872Z,25.77
2023-09-13T14:48:54.395Z,25.76
2023-09-13T14:51:21.862Z,25.50
2023-09-13T14:53:48.695Z,25.48
2023-09-13T14:56:15.410Z,25.47
2023-09-13T14:58:42.758Z,25.27
2023-09-13T15:01:09.801Z,25.14
2023-09-13T15:03:38.084Z,25.00
2023-09-13T15:06:05.157Z,24.93
2023-09-13T15:08:31.886Z,24.94
2023-09-13T15:10:58.732Z,24.67
2023-09-13T15:13:25.426Z,24.75
2023-09-13T15:15:52.749Z,24.91
2023-09-13T15:18:19.935Z,24.66
2023-09-13T15:20:47.634Z,24.71
2023-09-13T15:23:14.433Z,24.61
2023-09-13T15:25:41.187Z,24.36
2023-09-13T15:28:08.025Z,24.35
2023-09-13T15:30:34.796Z,24.28
2023-09-13T15:33:01.620Z,24.08
2023-09-13T15:35:28.847Z,24.00
2023-09-13T15:37:55.695Z,23.87
2023-09-13T15:40:22.429Z,23.69
2023-09-13T15:42:49.372Z,23.49
2023-09-13T15:45:19.494Z,23.40
2023-09-13T15:47:48.973Z,23.14
2023-09-13T15:50:15.782Z,23.23
2023-09-13T15:52:42.781Z,23.16
2023-09-13T15:55:10.399Z,22.95
2023-09-13T15:57:37.112Z,22.85
2023-09-13T16:00:04.665Z,22.64
2023-09-13T16:02:33.792Z,22.57
2023-09-13T16:05:00.613Z,22.46
2023-09-13T16:07:31.645Z,22.32
2023-09-13T16:09:58.342Z,22.22
2023-09-13T16:12:25.088Z,22.33
2023-09-13T16:14:51.825Z,22.34
2023-09-13T16:17:18.656Z,22.30
2023-09-13T16:19:45.475Z,22.08
2023-09-13T16:22:12.138Z,22.23
2023-09-13T16:24:38.899Z,22.24
2023-09-13T16:27:05.702Z,22.18
2023-09-13T16:29:32.921Z,21.90
2023-09-13T16:32:00.444Z,21.87
2023-09-13T16:34:27.379Z,21.71
2023-09-13T16:36:54.588Z,21.47
2023-09-13T16:39:22.129Z,21.58
2023-09-13T16:41:49.346Z,21.35
2023-09-13T16:44:16.625Z,21.05
2023-09-13T16:46:46.882Z,21.08
2023-09-13T16:49:14.439Z,20.91
2023-09-13T16:51:42.125Z,20.84
2023-09-13T16:54:08.873Z,20.98
2023-09-13T16:56:35.546Z,20.86
2023-09-13T16:59:02.235Z,20.80
2023-09-13T17:01:29.040Z,20.86
2023-09-13T17:03:55.929Z,20.72
2023-09-13T17:06:24.899Z,20.98
2023-09-13T17:08:51.537Z,20.94
2023-09-13T17:11:19.796Z,20.73
2023-09-13T17:13:47.488Z,20.69
2023-09-13T17:16:14.614Z,20.75
2023-09-13T17:18:41.384Z,20.61
2023-09-13T17:21:08.185Z,20.56
2023-09-13T17:23:34.999Z,20.91
2023-09-13T17:26:01.995Z,20.73
2023-09-13T17:28:38.047Z,20.68
2023-09-13T17:31:04.986Z,20.77
2023-09-13T17:33:31.778Z,20.68
2023-09-13T17:35:59.010Z,20.72
2023-09-13T17:38:25.774Z,20.74
2023-09-13T17:40:52.579Z,20.88
2023-09-13T17:43:19.331Z,20.64
2023-09-13T17:45:46.251Z,20.56
2023-09-13T17:48:13.043Z,20.46
2023-09-13T17:50:40.266Z,20.63
2023-09-13T17:53:07.835Z,20.61
2023-09-13T17:55:34.995Z,20.50
2023-09-13T17:58:02.085Z,20.45
2023-09-13T18:00:29.229Z,20.51
2023-09-13T18:02:56.523Z,20.36
2023-09-13T18:05:23.575Z,20.27
2023-09-13T18:07:56.122Z,20.67
2023-09-13T18:10:23.015Z,20.50
2023-09-13T18:12:49.836Z,20.46
2023-09-13T18:15:16.699Z,20.28
2023-09-13T18:17:52.649Z,20.34
2023-09-13T18:20:20.920Z,20.37
2023-09-13T18:22:47.720Z,20.25
2023-09-13T18:25:14.532Z,20.15
2023-09-13T18:27:43.898Z,19.88
2023-09-13T18:30:12.257Z,20.17
2023-09-13T18:32:39.182Z,20.29
2023-09-13T18:35:06.408Z,20.04
2023-09-13T18:37:34.853Z,20.10
2023-09-13T18:40:01.720Z,20.18
2023-09-13T18:42:28.579Z,19.98
2023-09-13T18:44:56.790Z,20.08
2023-09-13T18:47:23.793Z,19.96
2023-09-13T18:49:50.451Z,20.03
2023-09-13T18:52:17.163Z,19.98
2023-09-13T18:54:43.948Z,19.92
2023-09-13T18:57:11.274Z,19.73
2023-09-13T18:59:40.939Z,19.68
2023-09-13T19:02:12.244Z,19.90
2023-09-13T19:04:39.150Z,19.88
2023-09-13T19:07:10.264Z,20.02
2023-09-13T19:09:39.856Z,19.73
2023-09-13T19:12:07.448Z,19.64
2023-09-13T19:14:34.218Z,19.72
2023-09-13T19:17:00.961Z,19.74
2023-09-13T19:19:27.690Z,19.46
2023-09-13T19:21:54.537Z,19.03
2023-09-13T19:24:21.371Z,19.42
2023-09-13T19:26:48.201Z,19.56
2023-09-13T19:29:14.980Z,19.58
2023-09-13T19:31:41.770Z,19.43
2023-09-13T19:34:08.550Z,19.53
2023-09-13T19:36:35.313Z,19.41
2023-09-13T19:39:03.613Z,19.43
2023-09-13T19:41:30.355Z,19.23
2023-09-13T19:43:57.555Z,19.27
2023-09-13T19:46:24.524Z,19.28
2023-09-13T19:48:51.266Z,19.32
2023-09-13T19:51:18.094Z,19.09
2023-09-13T19:53:45.005Z,18.65
2023-09-13T19:56:11.882Z,18.98
2023-09-13T19:58:40.614Z,18.74
2023-09-13T20:01:09.234Z,18.88
2023-09-13T20:03:36.641Z,18.62
2023-09-13T20:06:15.361Z,18.92
2023-09-13T20:08:42.132Z,18.90
2023-09-13T20:11:09.663Z,18.86
2023-09-13T20:13:40.816Z,18.80
2023-09-13T20:16:08.229Z,18.72
2023-09-13T20:18:34.982Z,18.63
2023-09-13T20:21:04.677Z,18.67
2023-09-13T20:23:31.602Z,18.61
2023-09-13T20:25:58.749Z,18.59
2023-09-13T20:28:27.260Z,18.51
2023-09-13T20:30:55.397Z,18.53
2023-09-13T20:33:22.457Z,18.49
2023-09-13T20:35:50.038Z,18.59
2023-09-13T20:38:17.824Z,18.60
2023-09-13T20:40:44.597Z,18.53
2023-09-13T20:43:11.752Z,18.45
2023-09-13T20:45:39.424Z,18.51
2023-09-13T20:48:06.782Z,18.57
2023-09-13T20:50:33.532Z,18.54
2023-09-13T20:53:00.318Z,18.49
2023-09-13T20:55:27.085Z,18.58
2023-09-13T20:57:53.839Z,18.50
2023-09-13T21:00:20.636Z,18.55
2023-09-13T21:02:47.383Z,18.35
2023-09-13T21:05:14.075Z,18.48
2023-09-13T21:07:40.872Z,18.32
2023-09-13T21:10:07.780Z,18.44
2023-09-13T21:12:34.577Z,18.43
2023-09-13T21:15:01.226Z,18.37
2023-09-13T21:17:27.989Z,18.44
2023-09-13T21:19:55.095Z,18.30
2023-09-13T21:22:21.992Z,18.40
2023-09-13T21:24:50.376Z,18.32
2023-09-13T21:27:17.210Z,18.28
2023-09-13T21:29:44.005Z,18.38
2023-09-13T21:32:10.827Z,18.18
2023-09-13T21:34:55.021Z,18.28
2023-09-13T21:37:26.352Z,18.36
2023-09-13T21:39:53.727Z,18.38
2023-09-13T21:42:22.362Z,18.19
2023-09-13T21:44:50.904Z,18.33
2023-09-13T21:47:17.660Z,18.27
2023-09-13T21:49:44.413Z,18.14
2023-09-13T21:52:11.116Z,18.23
2023-09-13T21:54:43.745Z,18.23
2023-09-13T21:57:10.717Z,18.28
2023-09-13T21:59:37.519Z,18.20
2023-09-13T22:02:04.798Z,18.21
2023-09-13T22:04:31.992Z,18.05
2023-09-13T22:06:58.926Z,18.06
2023-09-13T22:09:25.767Z,17.97
2023-09-13T22:11:52.756Z,18.13
2023-09-13T22:14:19.492Z,18.05
2023-09-13T22:16:46.271Z,18.01
2023-09-13T22:19:13.195Z,17.95
2023-09-13T22:21:40.079Z,17.83
2023-09-13T22:24:07.024Z,17.86
2023-09-13T22:26:33.731Z,17.91
2023-09-13T22:29:00.524Z,17.77
2023-09-13T22:31:27.331Z,17.87
2023-09-13T22:33:56.432Z,17.86
2023-09-13T22:36:23.340Z,17.88
2023-09-13T22:38:58.438Z,17.72
2023-09-13T22:41:34.874Z,17.75
2023-09-13T22:44:01.769Z,17.68
2023-09-13T22:46:28.649Z,17.53
2023-09-13T22:48:55.564Z,17.36
2023-09-13T22:51:22.377Z,17.54
2023-09-13T22:53:49.225Z,17.59
2023-09-13T22:56:15.999Z,17.35
2023-09-13T22:58:43.079Z,17.57
2023-09-13T23:01:11.257Z,17.51
2023-09-13T23:03:45.232Z,17.33
2023-09-13T23:06:13.167Z,17.34
2023-09-13T23:08:40.386Z,17.26
2023-09-13T23:11:07.550Z,17.29
2023-09-13T23:13:37.522Z,17.29
2023-09-13T23:16:06.475Z,17.22
2023-09-13T23:18:35.075Z,17.16
2023-09-13T23:21:02.600Z,16.96
2023-09-13T23:23:31.064Z,16.76
2023-09-13T23:26:02.469Z,16.69
2023-09-13T23:28:29.573Z,16.74
2023-09-13T23:31:07.957Z,16.57
2023-09-13T23:33:36.581Z,16.82
2023-09-13T23:36:04.580Z,16.81
2023-09-13T23:38:32.175Z,16.55
2023-09-13T23:41:06.516Z,16.51
2023-09-13T23:43:37.231Z,16.47
2023-09-13T23:46:05.139Z,16.43
2023-09-13T23:48:33.291Z,16.01
2023-09-13T23:51:00.162Z,16.17
2023-09-13T23:53:28.243Z,16.31
2023-09-13T23:55:55.050Z,16.38
2023-09-13T23:58:21.744Z,16.15
